Time,TemperatureF,DewpointF,PressureIn,WindDirection,WindDirectionDegrees,WindSpeedMPH,WindSpeedGustMPH,Humidity,HourlyPrecipIn,Conditions,Clouds,dailyrainin,SoftwareType,DateUTC
2013-01-11 00:17:00,34.3,27.9,30.30,ESE,112,1.7,-999.0,77,-99.99,,,0.00,Acu-Link.com,2013-01-11 05:17:00,
2013-01-11 00:32:00,34.7,27.9,30.29,ESE,112,4.2,-999.0,76,-99.99,,,0.00,Acu-Link.com,2013-01-11 05:32:00,
2013-01-11 00:48:00,34.9,28.1,30.29,East,90,3.7,-999.0,76,-99.99,,,0.00,Acu-Link.com,2013-01-11 05:48:00,
2013-01-11 01:03:00,34.7,27.9,30.28,East,90,4.7,-999.0,76,-99.99,,,0.00,Acu-Link.com,2013-01-11 06:03:00,
2013-01-11 01:18:00,34.7,27.9,30.27,East,90,5.8,-999.0,76,-99.99,,,0.00,Acu-Link.com,2013-01-11 06:18:00,
2013-01-11 01:34:00,34.5,28.0,30.25,East,90,2.2,-999.0,77,-99.99,,,0.00,Acu-Link.com,2013-01-11 06:34:00,
2013-01-11 01:49:00,34.5,28.4,30.24,East,90,3.7,-999.0,78,-99.99,,,0.00,Acu-Link.com,2013-01-11 06:49:00,
2013-01-11 02:04:00,34.5,28.4,30.23,ENE,67,4.2,-999.0,78,-99.99,,,0.00,Acu-Link.com,2013-01-11 07:04:00,
2013-01-11 02:20:00,34.3,28.2,30.23,ESE,112,4.2,-999.0,78,-99.99,,,0.00,Acu-Link.com,2013-01-11 07:20:00,
2013-01-11 02:35:00,34.2,28.4,30.22,ESE,112,3.2,-999.0,79,-99.99,,,0.00,Acu-Link.com,2013-01-11 07:35:00,
2013-01-11 02:50:00,34.2,28.4,30.21,ESE,112,0.0,-999.0,79,-99.99,,,0.00,Acu-Link.com,2013-01-11 07:50:00,
2013-01-11 03:05:00,34.3,28.2,30.20,ESE,112,4.2,-999.0,78,-99.99,,,0.00,Acu-Link.com,2013-01-11 08:05:00,
2013-01-11 03:21:00,34.5,28.4,30.20,ENE,67,0.0,-999.0,78,-99.99,,,0.00,Acu-Link.com,2013-01-11 08:21:00,
2013-01-11 03:36:00,34.5,28.4,30.17,East,90,1.7,-999.0,78,-99.99,,,0.00,Acu-Link.com,2013-01-11 08:36:00,
2013-01-11 03:51:00,35.1,29.3,30.17,WNW,292,0.0,-999.0,79,-99.99,,,0.00,Acu-Link.com,2013-01-11 08:51:00,
2013-01-11 04:11:00,35.1,30.2,30.16,NE,45,1.7,-999.0,82,-99.99,,,0.00,Acu-Link.com,2013-01-11 09:11:00,
2013-01-11 04:26:00,34.7,31.8,30.14,NNE,22,2.2,-999.0,89,-99.99,,,0.00,Acu-Link.com,2013-01-11 09:26:00,
2013-01-11 04:41:00,34.7,32.3,30.13,ENE,67,0.0,-999.0,91,-99.99,,,0.00,Acu-Link.com,2013-01-11 09:41:00,
2013-01-11 04:57:00,34.5,32.7,30.12,ESE,112,0.0,-999.0,93,-99.99,,,0.00,Acu-Link.com,2013-01-11 09:57:00,
2013-01-11 05:12:00,34.5,32.4,30.11,ENE,67,1.7,-999.0,92,-99.99,,,0.00,Acu-Link.com,2013-01-11 10:12:00,
2013-01-11 05:27:00,35.1,31.3,30.09,ESE,112,1.1,-999.0,86,-99.99,,,0.00,Acu-Link.com,2013-01-11 10:27:00,
2013-01-11 05:43:00,35.6,32.1,30.09,NNW,337,1.7,-999.0,87,-99.99,,,0.00,Acu-Link.com,2013-01-11 10:43:00,
2013-01-11 05:58:00,35.8,32.6,30.09,North,0,0.0,-999.0,88,-99.99,,,0.00,Acu-Link.com,2013-01-11 10:58:00,
2013-01-11 06:13:00,36.0,33.1,30.08,East,90,0.0,-999.0,89,-99.99,,,0.00,Acu-Link.com,2013-01-11 11:13:00,
2013-01-11 06:29:00,36.1,33.2,30.09,NW,315,0.0,-999.0,89,-99.99,,,0.00,Acu-Link.com,2013-01-11 11:29:00,
2013-01-11 06:44:00,36.1,33.2,30.07,ENE,67,1.7,-999.0,89,-99.99,,,0.00,Acu-Link.com,2013-01-11 11:44:00,
2013-01-11 06:59:00,36.1,34.0,30.06,SW,225,0.0,-999.0,92,-99.99,,,0.00,Acu-Link.com,2013-01-11 11:59:00,
2013-01-11 07:14:00,36.1,34.8,30.05,ENE,67,0.0,-999.0,95,-99.99,,,0.00,Acu-Link.com,2013-01-11 12:14:00,
2013-01-11 07:30:00,36.3,35.0,30.05,ESE,112,0.0,-999.0,95,-99.99,,,0.00,Acu-Link.com,2013-01-11 12:30:00,
2013-01-11 07:45:00,36.5,35.5,30.05,ESE,112,0.0,-999.0,96,-99.99,,,0.00,Acu-Link.com,2013-01-11 12:45:00,
2013-01-11 08:00:00,36.7,35.7,30.04,East,90,0.0,-999.0,96,-99.99,,,0.00,Acu-Link.com,2013-01-11 13:00:00,
2013-01-11 08:16:00,37.2,35.6,30.05,WSW,247,0.0,-999.0,94,-99.99,,,0.00,Acu-Link.com,2013-01-11 13:16:00,
2013-01-11 08:31:00,37.9,35.2,30.05,ESE,112,2.2,-999.0,90,-99.99,,,0.01,Acu-Link.com,2013-01-11 13:31:00,
2013-01-11 08:46:00,38.8,35.8,30.03,South,180,2.7,-999.0,89,-99.99,,,0.02,Acu-Link.com,2013-01-11 13:46:00,
2013-01-11 09:02:00,39.9,35.8,30.02,South,180,3.2,-999.0,85,-99.99,,,0.03,Acu-Link.com,2013-01-11 14:02:00,
2013-01-11 09:17:00,40.5,36.1,30.01,SE,135,4.7,-999.0,84,-99.99,,,0.04,Acu-Link.com,2013-01-11 14:17:00,
2013-01-11 09:32:00,41.0,35.3,30.00,SSE,157,5.8,-999.0,80,-99.99,,,0.04,Acu-Link.com,2013-01-11 14:32:00,
2013-01-11 09:47:00,42.1,35.7,29.99,SSE,157,3.7,-999.0,78,-99.99,,,0.04,Acu-Link.com,2013-01-11 14:47:00,
2013-01-11 10:03:00,42.6,35.6,29.98,South,180,3.7,-999.0,76,-99.99,,,0.04,Acu-Link.com,2013-01-11 15:03:00,
2013-01-11 10:18:00,43.3,35.6,29.98,SSE,157,3.7,-999.0,74,-99.99,,,0.04,Acu-Link.com,2013-01-11 15:18:00,
2013-01-11 10:33:00,43.7,35.6,29.96,East,90,3.2,-999.0,73,-99.99,,,0.04,Acu-Link.com,2013-01-11 15:33:00,
2013-01-11 10:49:00,44.1,35.7,29.95,ESE,112,3.7,-999.0,72,-99.99,,,0.04,Acu-Link.com,2013-01-11 15:49:00,
2013-01-11 11:04:00,44.6,36.1,29.93,ESE,112,2.7,-999.0,72,-99.99,,,0.04,Acu-Link.com,2013-01-11 16:04:00,
2013-01-11 11:19:00,44.4,38.0,29.92,ESE,112,2.2,-999.0,78,-99.99,,,0.04,Acu-Link.com,2013-01-11 16:19:00,
2013-01-11 11:35:00,45.7,39.6,29.91,SE,135,0.0,-999.0,79,-99.99,,,0.04,Acu-Link.com,2013-01-11 16:35:00,
2013-01-11 11:50:00,48.0,40.5,29.89,SSE,157,1.7,-999.0,75,-99.99,,,0.04,Acu-Link.com,2013-01-11 16:50:00,
2013-01-11 12:05:00,48.7,40.8,29.88,ESE,112,2.2,-999.0,74,-99.99,,,0.04,Acu-Link.com,2013-01-11 17:05:00,
2013-01-11 12:21:00,49.1,41.5,29.87,SSE,157,2.7,-999.0,75,-99.99,,,0.04,Acu-Link.com,2013-01-11 17:21:00,
2013-01-11 12:36:00,49.5,41.6,29.86,SSE,157,4.7,-999.0,74,-99.99,,,0.04,Acu-Link.com,2013-01-11 17:36:00,
2013-01-11 12:51:00,49.8,42.5,29.85,SSE,157,3.2,-999.0,76,-99.99,,,0.04,Acu-Link.com,2013-01-11 17:51:00,
2013-01-11 13:07:00,50.9,42.2,29.84,SE,135,3.7,-999.0,72,-99.99,,,0.04,Acu-Link.com,2013-01-11 18:07:00,
2013-01-11 13:22:00,50.5,42.2,29.82,SSE,157,5.3,-999.0,73,-99.99,,,0.04,Acu-Link.com,2013-01-11 18:22:00,
2013-01-11 13:37:00,49.6,42.7,29.83,SSE,157,4.7,-999.0,77,-99.99,,,0.04,Acu-Link.com,2013-01-11 18:37:00,
2013-01-11 13:53:00,48.7,44.1,29.83,SSE,157,5.3,-999.0,84,-99.99,,,0.05,Acu-Link.com,2013-01-11 18:53:00,
2013-01-11 14:08:00,48.0,44.3,29.82,SSE,157,5.3,-999.0,87,-99.99,,,0.06,Acu-Link.com,2013-01-11 19:08:00,
2013-01-11 14:23:00,47.7,44.3,29.81,SE,135,6.3,-999.0,88,-99.99,,,0.06,Acu-Link.com,2013-01-11 19:23:00,
2013-01-11 14:38:00,46.6,43.8,29.81,SSE,157,5.3,-999.0,90,-99.99,,,0.06,Acu-Link.com,2013-01-11 19:38:00,
2013-01-11 14:54:00,46.0,43.8,29.81,SE,135,4.7,-999.0,92,-99.99,,,0.09,Acu-Link.com,2013-01-11 19:54:00,
2013-01-11 15:09:00,46.0,43.8,29.80,ESE,112,5.3,-999.0,92,-99.99,,,0.09,Acu-Link.com,2013-01-11 20:09:00,
2013-01-11 15:24:00,46.8,44.3,29.78,SE,135,6.8,-999.0,91,-99.99,,,0.09,Acu-Link.com,2013-01-11 20:24:00,
2013-01-11 15:39:00,46.9,44.1,29.81,South,180,3.2,-999.0,90,-99.99,,,0.09,Acu-Link.com,2013-01-11 20:39:00,
2013-01-11 15:55:00,47.5,44.4,29.82,South,180,4.7,-999.0,89,-99.99,,,0.09,Acu-Link.com,2013-01-11 20:55:00,
2013-01-11 16:10:00,47.5,44.4,29.83,SW,225,4.7,-999.0,89,-99.99,,,0.09,Acu-Link.com,2013-01-11 21:10:00,
2013-01-11 16:25:00,47.8,44.1,29.83,SW,225,4.7,-999.0,87,-99.99,,,0.09,Acu-Link.com,2013-01-11 21:25:00,
2013-01-11 16:41:00,47.3,43.9,29.84,South,180,4.2,-999.0,88,-99.99,,,0.09,Acu-Link.com,2013-01-11 21:41:00,
2013-01-11 16:56:00,46.6,43.8,29.83,SW,225,5.3,-999.0,90,-99.99,,,0.09,Acu-Link.com,2013-01-11 21:56:00,
2013-01-11 17:11:00,46.6,44.4,29.83,SSW,202,2.2,-999.0,92,-99.99,,,0.09,Acu-Link.com,2013-01-11 22:11:00,
2013-01-11 17:27:00,46.4,44.5,29.83,SSW,202,5.3,-999.0,93,-99.99,,,0.09,Acu-Link.com,2013-01-11 22:27:00,
2013-01-11 17:42:00,47.7,44.9,29.83,SSE,157,6.8,-999.0,90,-99.99,,,0.09,Acu-Link.com,2013-01-11 22:42:00,
2013-01-11 17:57:00,48.2,45.1,29.84,South,180,4.7,-999.0,89,-99.99,,,0.10,Acu-Link.com,2013-01-11 22:57:00,
2013-01-11 18:12:00,48.2,45.4,29.84,SW,225,5.3,-999.0,90,-99.99,,,0.10,Acu-Link.com,2013-01-11 23:12:00,
2013-01-11 18:27:00,48.2,45.7,29.84,SW,225,7.3,-999.0,91,-99.99,,,0.10,Acu-Link.com,2013-01-11 23:27:00,
2013-01-11 18:43:00,48.2,45.7,29.85,SSW,202,4.7,-999.0,91,-99.99,,,0.10,Acu-Link.com,2013-01-11 23:43:00,
2013-01-11 18:58:00,48.6,45.8,29.85,South,180,4.7,-999.0,90,-99.99,,,0.10,Acu-Link.com,2013-01-11 23:58:00,
2013-01-11 19:13:00,48.7,45.9,29.85,SSW,202,6.8,-999.0,90,-99.99,,,0.10,Acu-Link.com,2013-01-12 00:13:00,
2013-01-11 19:28:00,48.9,46.1,29.85,South,180,4.2,-999.0,90,-99.99,,,0.10,Acu-Link.com,2013-01-12 00:28:00,
2013-01-11 19:44:00,49.1,46.0,29.86,South,180,4.7,-999.0,89,-99.99,,,0.10,Acu-Link.com,2013-01-12 00:44:00,
2013-01-11 19:59:00,49.1,46.0,29.86,SSW,202,7.3,-999.0,89,-99.99,,,0.10,Acu-Link.com,2013-01-12 00:59:00,
2013-01-11 20:14:00,49.3,46.2,29.86,WSW,247,6.8,-999.0,89,-99.99,,,0.10,Acu-Link.com,2013-01-12 01:14:00,
2013-01-11 20:30:00,49.5,46.4,29.86,SSW,202,8.3,-999.0,89,-99.99,,,0.10,Acu-Link.com,2013-01-12 01:30:00,
2013-01-11 20:45:00,49.6,46.5,29.86,SSW,202,4.7,-999.0,89,-99.99,,,0.10,Acu-Link.com,2013-01-12 01:45:00,
2013-01-11 21:00:00,49.8,46.7,29.86,SSW,202,2.7,-999.0,89,-99.99,,,0.10,Acu-Link.com,2013-01-12 02:00:00,
2013-01-11 21:15:00,49.3,46.2,29.86,SW,225,8.3,-999.0,89,-99.99,,,0.10,Acu-Link.com,2013-01-12 02:15:00,
2013-01-11 21:31:00,49.8,46.7,29.86,South,180,5.3,-999.0,89,-99.99,,,0.10,Acu-Link.com,2013-01-12 02:31:00,
2013-01-11 21:46:00,50.0,46.9,29.86,SSW,202,5.3,-999.0,89,-99.99,,,0.10,Acu-Link.com,2013-01-12 02:46:00,
2013-01-11 22:01:00,49.8,46.7,29.86,SW,225,5.8,-999.0,89,-99.99,,,0.10,Acu-Link.com,2013-01-12 03:01:00,
2013-01-11 22:16:00,50.2,47.4,29.87,SW,225,6.3,-999.0,90,-99.99,,,0.10,Acu-Link.com,2013-01-12 03:16:00,
2013-01-11 22:32:00,50.7,47.6,29.87,SSW,202,4.2,-999.0,89,-99.99,,,0.10,Acu-Link.com,2013-01-12 03:32:00,
2013-01-11 22:47:00,50.5,47.4,29.87,WSW,247,2.2,-999.0,89,-99.99,,,0.10,Acu-Link.com,2013-01-12 03:47:00,
2013-01-11 23:02:00,50.4,47.3,29.86,South,180,3.7,-999.0,89,-99.99,,,0.10,Acu-Link.com,2013-01-12 04:02:00,
2013-01-11 23:18:00,50.5,47.4,29.87,SW,225,4.2,-999.0,89,-99.99,,,0.10,Acu-Link.com,2013-01-12 04:18:00,
2013-01-11 23:33:00,50.4,47.6,29.85,South,180,3.2,-999.0,90,-99.99,,,0.10,Acu-Link.com,2013-01-12 04:33:00,
2013-01-11 23:49:00,50.0,47.2,29.87,WSW,247,2.7,-999.0,90,-99.99,,,0.10,Acu-Link.com,2013-01-12 04:49:00,